createdAt,value
2016-12-08T00:00:24.620Z,8.46
2016-12-08T00:01:24.780Z,8.47
2016-12-08T00:02:24.714Z,8.6
2016-12-08T00:03:24.730Z,8.4
2016-12-08T00:04:24.788Z,8.43
2016-12-08T00:05:24.844Z,8.4
2016-12-08T00:06:24.715Z,8.49
2016-12-08T00:07:24.745Z,8.43
2016-12-08T00:08:24.650Z,8.4
2016-12-08T00:09:24.801Z,8.64
2016-12-08T00:10:24.803Z,8.32
2016-12-08T00:11:24.656Z,8.28
2016-12-08T00:12:24.731Z,8.4
2016-12-08T00:13:24.742Z,8.39
2016-12-08T00:14:24.745Z,8.36
2016-12-08T00:15:24.777Z,8.31
2016-12-08T00:16:24.786Z,8.42
2016-12-08T00:17:24.744Z,8.44
2016-12-08T00:18:24.678Z,8.46
2016-12-08T00:19:24.828Z,8.39
2016-12-08T00:20:24.771Z,8.36
2016-12-08T00:21:24.835Z,8.43
2016-12-08T00:22:24.691Z,8.44
2016-12-08T00:23:24.764Z,8.44
2016-12-08T00:24:24.693Z,8.42
2016-12-08T00:25:24.712Z,8.36
2016-12-08T00:26:24.770Z,8.5
2016-12-08T00:27:24.772Z,8.42
2016-12-08T00:28:24.793Z,8.35
2016-12-08T00:29:24.852Z,8.34
2016-12-08T00:30:24.749Z,8.43
2016-12-08T00:31:24.848Z,8.44
2016-12-08T00:32:24.881Z,8.4
2016-12-08T00:33:24.879Z,8.39
2016-12-08T00:34:24.809Z,8.36
2016-12-08T00:35:24.872Z,8.42
2016-12-08T00:36:24.885Z,8.43
2016-12-08T00:37:25.129Z,8.24
2016-12-08T00:38:24.845Z,8.34
2016-12-08T00:39:24.819Z,8.32
2016-12-08T00:40:24.837Z,8.4
2016-12-08T00:41:24.867Z,8.39
2016-12-08T00:42:25.605Z,8.32
2016-12-08T00:43:24.742Z,8.34
2016-12-08T00:44:24.903Z,8.4
2016-12-08T00:45:24.851Z,8.35
2016-12-08T00:46:24.833Z,8.36
2016-12-08T00:47:24.832Z,8.28
2016-12-08T00:48:24.901Z,8.13
2016-12-08T00:49:24.928Z,8.26
2016-12-08T00:50:24.876Z,8.25
2016-12-08T00:51:24.908Z,8.25
2016-12-08T00:52:24.837Z,8.29
2016-12-08T00:53:24.862Z,8.19
2016-12-08T00:54:24.856Z,8.29
2016-12-08T00:55:24.869Z,8.31
2016-12-08T00:56:24.859Z,8.31
2016-12-08T00:57:24.935Z,8.29
2016-12-08T00:58:24.868Z,8.31
2016-12-08T00:59:24.932Z,8.32
2016-12-08T01:00:24.866Z,8.39
2016-12-08T01:01:24.886Z,8.21
2016-12-08T01:02:24.880Z,8.19
2016-12-08T01:03:24.877Z,8.19
2016-12-08T01:04:24.871Z,8.36
2016-12-08T01:05:24.900Z,8.21
2016-12-08T01:06:24.883Z,8.32
2016-12-08T01:07:24.907Z,8.31
2016-12-08T01:08:24.821Z,8.25
2016-12-08T01:09:24.920Z,8.22
2016-12-08T01:10:24.903Z,8.31
2016-12-08T01:11:24.852Z,8.26
2016-12-08T01:12:24.903Z,8.19
2016-12-08T01:13:24.984Z,8.31
2016-12-08T01:14:24.976Z,8.19
2016-12-08T01:15:24.999Z,8.32
2016-12-08T01:16:24.997Z,8.32
2016-12-08T01:17:25.010Z,8.19
2016-12-08T01:18:24.989Z,8.21
2016-12-08T01:19:24.944Z,8.26
2016-12-08T01:20:24.921Z,8.34
2016-12-08T01:21:25.005Z,8.24
2016-12-08T01:22:24.908Z,8.36
2016-12-08T01:23:24.855Z,8.28
2016-12-08T01:24:25.025Z,8.26
2016-12-08T01:25:24.874Z,8.13
2016-12-08T01:26:25.037Z,8.24
2016-12-08T01:27:24.983Z,8.32
2016-12-08T01:28:24.885Z,8.34
2016-12-08T01:29:25.040Z,8.16
2016-12-08T01:30:24.876Z,8.28
2016-12-08T01:31:24.964Z,8.14
2016-12-08T01:32:24.963Z,8.16
2016-12-08T01:33:24.998Z,8.21
2016-12-08T01:34:24.973Z,8.24
2016-12-08T01:35:24.987Z,8.13
2016-12-08T01:36:24.976Z,8.04
2016-12-08T01:37:25.047Z,8.25
2016-12-08T01:38:25.064Z,8.11
2016-12-08T01:39:25.172Z,8.16
2016-12-08T01:40:25.022Z,8.22
2016-12-08T01:41:24.971Z,8.17
2016-12-08T01:42:24.996Z,8.21
2016-12-08T01:43:25.072Z,8.13
2016-12-08T01:44:24.912Z,8.22
2016-12-08T01:45:24.924Z,8.1
2016-12-08T01:46:25.017Z,8.29
2016-12-08T01:47:25.083Z,8.14
2016-12-08T01:48:25.003Z,8.21
2016-12-08T01:49:25.004Z,8.11
2016-12-08T01:50:25.019Z,8.26
2016-12-08T01:51:25.079Z,8.24
2016-12-08T01:52:25.013Z,8.22
2016-12-08T01:53:25.068Z,8.11
2016-12-08T01:54:25.123Z,8.26
2016-12-08T01:55:25.107Z,8.34
2016-12-08T01:56:25.094Z,8.17
2016-12-08T01:57:25.097Z,8.31
2016-12-08T01:58:25.100Z,8.35
2016-12-08T01:59:25.121Z,8.32
2016-12-08T02:00:25.034Z,8.31
2016-12-08T02:01:25.042Z,8.25
2016-12-08T02:02:25.174Z,8.29
2016-12-08T02:03:24.969Z,8.36
2016-12-08T02:04:25.118Z,8.4
2016-12-08T02:05:25.035Z,8.52
2016-12-08T02:06:24.988Z,8.47
2016-12-08T02:07:24.975Z,8.52
2016-12-08T02:08:24.991Z,8.35
2016-12-08T02:09:25.137Z,8.5
2016-12-08T02:10:25.005Z,8.65
2016-12-08T02:11:25.049Z,8.65
2016-12-08T02:12:25.124Z,8.83
2016-12-08T02:13:25.079Z,8.82
2016-12-08T02:14:25.146Z,8.74
2016-12-08T02:15:25.087Z,8.68
2016-12-08T02:16:25.077Z,8.67
2016-12-08T02:17:25.078Z,8.72
2016-12-08T02:18:25.090Z,8.76
2016-12-08T02:19:25.030Z,8.82
2016-12-08T02:20:25.078Z,8.8
2016-12-08T02:21:25.078Z,8.8
2016-12-08T02:22:25.167Z,8.87
2016-12-08T02:23:25.198Z,8.8
2016-12-08T02:24:25.099Z,8.76
2016-12-08T02:25:25.414Z,8.86
2016-12-08T02:26:25.193Z,8.94
2016-12-08T02:27:25.120Z,8.85
2016-12-08T02:28:25.335Z,8.82
2016-12-08T02:29:25.103Z,8.83
2016-12-08T02:30:25.079Z,8.82
2016-12-08T02:31:25.156Z,8.71
2016-12-08T02:32:25.068Z,8.68
2016-12-08T02:33:25.199Z,8.77
2016-12-08T02:34:25.141Z,8.6
2016-12-08T02:35:25.158Z,8.64
2016-12-08T02:36:25.132Z,8.58
2016-12-08T02:37:25.126Z,8.67
2016-12-08T02:38:25.148Z,8.6
2016-12-08T02:39:25.539Z,8.71
2016-12-08T02:40:25.071Z,8.64
2016-12-08T02:41:25.073Z,8.67
2016-12-08T02:42:25.153Z,8.58
2016-12-08T02:43:25.244Z,8.61
2016-12-08T02:44:25.244Z,8.6
2016-12-08T02:45:25.487Z,8.54
2016-12-08T02:46:25.211Z,8.61
2016-12-08T02:47:25.142Z,8.57
2016-12-08T02:48:25.081Z,8.57
2016-12-08T02:49:25.176Z,8.52
2016-12-08T02:50:25.193Z,8.6
2016-12-08T02:51:25.261Z,8.85
2016-12-08T02:52:25.103Z,8.85
2016-12-08T02:53:25.177Z,8.89
2016-12-08T02:54:25.188Z,8.76
2016-12-08T02:55:25.255Z,8.76
2016-12-08T02:56:25.176Z,8.68
2016-12-08T02:57:25.121Z,8.69
2016-12-08T02:58:25.270Z,8.71
2016-12-08T02:59:25.208Z,8.72
2016-12-08T03:00:25.127Z,8.68
2016-12-08T03:01:25.271Z,8.62
2016-12-08T03:02:25.279Z,8.65
2016-12-08T03:03:25.285Z,8.58
2016-12-08T03:04:25.211Z,8.61
2016-12-08T03:05:25.214Z,8.54
2016-12-08T03:06:25.139Z,8.69
2016-12-08T03:07:25.387Z,8.61
2016-12-08T03:08:25.535Z,8.64
2016-12-08T03:09:25.312Z,8.6
2016-12-08T03:10:25.752Z,8.64
2016-12-08T03:11:25.279Z,8.71
2016-12-08T03:12:25.242Z,8.61
2016-12-08T03:13:25.171Z,8.6
2016-12-08T03:14:25.261Z,8.65
2016-12-08T03:15:25.327Z,8.74
2016-12-08T03:16:25.315Z,8.71
2016-12-08T03:17:25.252Z,8.61
2016-12-08T03:18:25.172Z,8.58
2016-12-08T03:19:25.260Z,8.57
2016-12-08T03:20:25.188Z,8.54
2016-12-08T03:21:25.273Z,8.6
2016-12-08T03:22:25.257Z,8.54
2016-12-08T03:23:25.188Z,8.58
2016-12-08T03:24:25.188Z,8.58
2016-12-08T03:25:25.382Z,8.64
2016-12-08T03:26:25.270Z,8.61
2016-12-08T03:27:25.195Z,8.6
2016-12-08T03:28:25.277Z,8.62
2016-12-08T03:29:25.336Z,8.62
2016-12-08T03:30:25.373Z,8.64
2016-12-08T03:31:25.363Z,8.61
2016-12-08T03:32:25.237Z,8.69
2016-12-08T03:33:25.317Z,8.72
2016-12-08T03:34:25.347Z,8.74
2016-12-08T03:35:25.323Z,8.64
2016-12-08T03:36:25.311Z,8.76
2016-12-08T03:37:25.220Z,8.64
2016-12-08T03:38:25.362Z,8.61
2016-12-08T03:39:25.302Z,8.65
2016-12-08T03:40:25.324Z,8.65
2016-12-08T03:41:25.235Z,8.69
2016-12-08T03:42:25.253Z,8.61
2016-12-08T03:43:25.397Z,8.85
2016-12-08T03:44:25.404Z,8.74
2016-12-08T03:45:25.411Z,8.74
2016-12-08T03:46:25.452Z,8.69
2016-12-08T03:47:25.411Z,8.62
2016-12-08T03:48:25.400Z,8.68
2016-12-08T03:49:25.440Z,8.65
2016-12-08T03:50:25.431Z,8.71
2016-12-08T03:51:25.508Z,8.68
2016-12-08T03:52:25.437Z,8.8
2016-12-08T03:53:25.424Z,8.83
2016-12-08T03:54:25.451Z,8.71
2016-12-08T03:55:25.452Z,8.71
2016-12-08T03:56:25.449Z,8.74
2016-12-08T03:57:26.133Z,8.67
2016-12-08T03:58:26.243Z,8.71
2016-12-08T03:59:25.610Z,8.65
2016-12-08T04:00:25.746Z,8.68
2016-12-08T04:01:25.615Z,8.74
2016-12-08T04:02:25.663Z,8.65
2016-12-08T04:03:25.628Z,8.71
2016-12-08T04:04:25.619Z,8.69
2016-12-08T04:05:25.629Z,8.72
2016-12-08T04:06:25.630Z,8.69
2016-12-08T04:07:25.645Z,8.71
2016-12-08T04:08:25.830Z,8.68
2016-12-08T04:09:25.660Z,8.74
2016-12-08T04:10:25.644Z,8.69
2016-12-08T04:11:25.636Z,8.71
2016-12-08T04:12:25.640Z,8.62
2016-12-08T04:13:25.719Z,8.71
2016-12-08T04:14:25.647Z,8.79
2016-12-08T04:15:25.939Z,8.83
2016-12-08T04:16:25.661Z,8.79
2016-12-08T04:17:25.701Z,8.77
2016-12-08T04:18:25.872Z,8.77
2016-12-08T04:19:25.692Z,8.76
2016-12-08T04:20:25.681Z,8.85
2016-12-08T04:21:25.698Z,8.92
2016-12-08T04:22:25.756Z,8.94
2016-12-08T04:23:25.732Z,8.9
2016-12-08T04:24:25.713Z,8.97
2016-12-08T04:25:25.689Z,8.95
2016-12-08T04:26:25.698Z,8.98
2016-12-08T04:27:25.732Z,9
2016-12-08T04:28:25.688Z,9.01
2016-12-08T04:29:25.701Z,8.89
2016-12-08T04:30:25.696Z,8.9
2016-12-08T04:31:25.856Z,8.95
2016-12-08T04:32:25.835Z,9.05
2016-12-08T04:33:25.705Z,8.97
2016-12-08T04:34:25.908Z,8.9
2016-12-08T04:35:25.732Z,8.97
2016-12-08T04:36:25.715Z,9.04
2016-12-08T04:37:25.724Z,9.16
2016-12-08T04:38:25.716Z,9.05
2016-12-08T04:39:26.022Z,9.05
2016-12-08T04:40:25.767Z,9.09
2016-12-08T04:41:25.722Z,9.05
2016-12-08T04:42:25.729Z,9.12
2016-12-08T04:43:25.725Z,9.04
2016-12-08T04:44:25.730Z,9.08
2016-12-08T04:45:25.722Z,9.12
2016-12-08T04:46:25.732Z,9.2
2016-12-08T04:47:25.740Z,9.08
2016-12-08T04:48:25.738Z,9.14
2016-12-08T04:49:25.733Z,9.21
2016-12-08T04:50:25.802Z,9.14
2016-12-08T04:51:25.780Z,9.05
2016-12-08T04:52:25.836Z,9.14
2016-12-08T04:53:25.760Z,9.14
2016-12-08T04:54:25.827Z,9.2
2016-12-08T04:55:25.985Z,9.08
2016-12-08T04:56:25.765Z,8.94
2016-12-08T04:57:25.766Z,8.94
2016-12-08T04:58:25.781Z,8.95
2016-12-08T04:59:25.789Z,8.97
2016-12-08T05:00:25.821Z,9.08
2016-12-08T05:01:25.844Z,9.08
2016-12-08T05:02:25.843Z,8.89
2016-12-08T05:03:25.798Z,9.08
2016-12-08T05:04:25.802Z,9.05
2016-12-08T05:05:25.798Z,8.97
2016-12-08T05:06:25.818Z,8.98
2016-12-08T05:07:25.813Z,8.92
2016-12-08T05:08:25.819Z,8.92
2016-12-08T05:09:25.865Z,9.01
2016-12-08T05:10:25.852Z,8.87
2016-12-08T05:11:26.020Z,9
2016-12-08T05:12:25.830Z,8.95
2016-12-08T05:13:25.820Z,9.09
2016-12-08T05:14:25.893Z,8.97
2016-12-08T05:15:25.834Z,9.01
2016-12-08T05:16:25.819Z,9.17
2016-12-08T05:17:25.822Z,9.01
2016-12-08T05:18:25.829Z,9.05
2016-12-08T05:19:25.830Z,8.98
2016-12-08T05:20:25.836Z,9.09
2016-12-08T05:21:25.850Z,9.09
2016-12-08T05:22:25.782Z,9.23
2016-12-08T05:23:25.695Z,9.21
2016-12-08T05:24:25.788Z,9.05
2016-12-08T05:25:25.717Z,9.09
2016-12-08T05:26:25.690Z,9.16
2016-12-08T05:27:25.818Z,9.09
2016-12-08T05:28:25.852Z,9.19
2016-12-08T05:29:25.825Z,9.11
2016-12-08T05:30:25.702Z,9.24
2016-12-08T05:31:25.793Z,9.24
2016-12-08T05:32:25.898Z,9.14
2016-12-08T05:33:25.797Z,9.2
2016-12-08T05:34:25.849Z,9.14
2016-12-08T05:35:25.844Z,9.05
2016-12-08T05:36:25.731Z,9.03
2016-12-08T05:37:25.823Z,9
2016-12-08T05:38:25.745Z,9.04
2016-12-08T05:39:25.889Z,9.09
2016-12-08T05:40:25.559Z,9.05
2016-12-08T05:41:25.735Z,9.08
2016-12-08T05:42:25.737Z,9.08
2016-12-08T05:43:25.625Z,9.11
2016-12-08T05:44:25.631Z,9.12
2016-12-08T05:45:25.590Z,9.04
2016-12-08T05:46:25.713Z,9.03
2016-12-08T05:47:25.668Z,9.17
2016-12-08T05:48:25.753Z,9.09
2016-12-08T05:49:25.610Z,9.12
2016-12-08T05:50:25.609Z,9.04
2016-12-08T05:51:25.609Z,9.05
2016-12-08T05:52:25.690Z,9.08
2016-12-08T05:53:25.690Z,9
2016-12-08T05:54:25.631Z,9.04
2016-12-08T05:55:25.770Z,9.03
2016-12-08T05:56:25.662Z,8.85
2016-12-08T05:57:25.773Z,9.01
2016-12-08T05:58:25.623Z,8.92
2016-12-08T05:59:25.812Z,8.95
2016-12-08T06:00:25.702Z,8.98
2016-12-08T06:01:25.694Z,8.92
2016-12-08T06:02:25.642Z,8.97
2016-12-08T06:03:25.711Z,8.86
2016-12-08T06:04:25.812Z,8.98
2016-12-08T06:05:25.644Z,8.97
2016-12-08T06:06:25.719Z,8.95
2016-12-08T06:07:25.767Z,8.82
2016-12-08T06:08:25.736Z,8.83
2016-12-08T06:09:25.823Z,8.77
2016-12-08T06:10:25.673Z,8.85
2016-12-08T06:11:25.743Z,8.92
2016-12-08T06:12:25.829Z,8.83
2016-12-08T06:13:25.868Z,8.92
2016-12-08T06:14:25.752Z,8.79
2016-12-08T06:15:25.881Z,8.76
2016-12-08T06:16:25.890Z,8.71
2016-12-08T06:17:25.892Z,8.77
2016-12-08T06:18:25.765Z,8.58
2016-12-08T06:19:25.706Z,8.62
2016-12-08T06:20:25.762Z,8.57
2016-12-08T06:21:25.706Z,8.62
2016-12-08T06:22:25.847Z,8.64
2016-12-08T06:23:25.709Z,8.53
2016-12-08T06:24:25.793Z,8.67
2016-12-08T06:25:25.838Z,8.65
2016-12-08T06:26:25.864Z,8.71
2016-12-08T06:27:25.796Z,8.71
2016-12-08T06:28:25.752Z,8.71
2016-12-08T06:29:25.793Z,8.62
2016-12-08T06:30:25.790Z,8.61
2016-12-08T06:31:25.836Z,8.62
2016-12-08T06:32:25.818Z,8.62
2016-12-08T06:33:25.793Z,8.6
2016-12-08T06:34:25.903Z,8.6
2016-12-08T06:35:25.821Z,8.58
2016-12-08T06:36:25.814Z,8.54
2016-12-08T06:37:25.741Z,8.57
2016-12-08T06:38:25.917Z,8.67
2016-12-08T06:39:25.731Z,8.61
2016-12-08T06:40:25.749Z,8.58
2016-12-08T06:41:25.911Z,8.58
2016-12-08T06:42:25.892Z,8.52
2016-12-08T06:43:25.837Z,8.6
2016-12-08T06:44:25.843Z,8.52
2016-12-08T06:45:25.772Z,8.65
2016-12-08T06:46:25.898Z,8.68
2016-12-08T06:47:25.913Z,8.54
2016-12-08T06:48:25.840Z,8.52
2016-12-08T06:49:25.920Z,8.52
2016-12-08T06:50:25.941Z,8.52
2016-12-08T06:51:25.847Z,8.49
2016-12-08T06:52:25.857Z,8.46
2016-12-08T06:53:25.868Z,8.44
2016-12-08T06:54:25.780Z,8.43
2016-12-08T06:55:25.775Z,8.5
2016-12-08T06:56:26.029Z,8.46
2016-12-08T06:57:25.863Z,8.43
2016-12-08T06:58:25.928Z,8.44
2016-12-08T06:59:25.891Z,8.44
2016-12-08T07:00:25.918Z,8.5
2016-12-08T07:01:25.818Z,8.47
2016-12-08T07:02:25.877Z,8.5
2016-12-08T07:03:25.866Z,8.44
2016-12-08T07:04:25.842Z,8.57
2016-12-08T07:05:25.907Z,8.46
2016-12-08T07:06:26.087Z,8.4
2016-12-08T07:07:26.095Z,8.35
2016-12-08T07:08:25.844Z,8.39
2016-12-08T07:09:26.090Z,8.42
2016-12-08T07:10:25.906Z,8.43
2016-12-08T07:11:25.980Z,8.5
2016-12-08T07:12:25.880Z,8.46
2016-12-08T07:13:26.062Z,8.4
2016-12-08T07:14:26.068Z,8.42
2016-12-08T07:15:26.004Z,8.39
2016-12-08T07:16:25.963Z,8.39
2016-12-08T07:17:26.021Z,8.4
2016-12-08T07:18:26.113Z,8.46
2016-12-08T07:19:26.091Z,8.42
2016-12-08T07:20:25.968Z,8.44
2016-12-08T07:21:25.941Z,8.4
2016-12-08T07:22:25.944Z,8.42
2016-12-08T07:23:25.990Z,8.36
2016-12-08T07:24:26.065Z,8.4
2016-12-08T07:25:25.988Z,8.32
2016-12-08T07:26:26.003Z,8.31
2016-12-08T07:27:26.135Z,8.36
2016-12-08T07:28:25.984Z,8.34
2016-12-08T07:29:26.030Z,8.35
2016-12-08T07:30:26.038Z,8.22
2016-12-08T07:31:26.001Z,8.28
2016-12-08T07:32:26.015Z,8.17
2016-12-08T07:33:26.050Z,8.16
2016-12-08T07:34:26.047Z,8.28
2016-12-08T07:35:26.051Z,8.13
2016-12-08T07:36:26.076Z,8.13
2016-12-08T07:37:26.027Z,8.1
2016-12-08T07:38:26.053Z,8.17
2016-12-08T07:39:26.072Z,8.07
2016-12-08T07:40:26.074Z,8.16
2016-12-08T07:41:26.004Z,7.99
2016-12-08T07:42:26.044Z,8.06
2016-12-08T07:43:26.001Z,8.06
2016-12-08T07:44:26.108Z,8.06
2016-12-08T07:45:26.078Z,8.1
2016-12-08T07:46:26.107Z,8.16
2016-12-08T07:47:26.099Z,8.21
2016-12-08T07:48:26.196Z,8.13
2016-12-08T07:49:26.072Z,8.09
2016-12-08T07:50:25.987Z,8.14
2016-12-08T07:51:26.106Z,8.04
2016-12-08T07:52:26.025Z,8.11
2016-12-08T07:53:26.228Z,8.13
2016-12-08T07:54:26.158Z,8.13
2016-12-08T07:55:26.031Z,8.06
2016-12-08T07:56:26.071Z,8.07
2016-12-08T07:57:26.127Z,8.19
2016-12-08T07:58:26.174Z,8.19
2016-12-08T07:59:26.082Z,8.11
2016-12-08T08:00:26.275Z,8.13
2016-12-08T08:01:26.052Z,8.11
2016-12-08T08:02:26.095Z,8.19
2016-12-08T08:03:26.066Z,8.19
2016-12-08T08:04:26.197Z,8.14
2016-12-08T08:05:26.177Z,8.17
2016-12-08T08:06:26.309Z,8.17
2016-12-08T08:07:26.134Z,8.14
2016-12-08T08:08:26.073Z,8.32
2016-12-08T08:09:26.142Z,8.26
2016-12-08T08:10:26.117Z,8.13
2016-12-08T08:11:26.004Z,8.31
2016-12-08T08:12:26.142Z,8.31
2016-12-08T08:13:26.204Z,8.36
2016-12-08T08:14:26.687Z,8.29
2016-12-08T08:15:26.071Z,8.28
2016-12-08T08:16:26.141Z,8.24
2016-12-08T08:17:26.032Z,8.26
2016-12-08T08:18:26.141Z,8.26
2016-12-08T08:19:26.123Z,8.29
2016-12-08T08:20:26.270Z,8.31
2016-12-08T08:21:26.279Z,8.21
2016-12-08T08:22:26.143Z,8.25
2016-12-08T08:23:26.234Z,8.29
2016-12-08T08:24:26.142Z,8.29
2016-12-08T08:25:26.187Z,8.4
2016-12-08T08:26:26.151Z,8.42
2016-12-08T08:27:26.171Z,8.44
2016-12-08T08:28:26.035Z,8.49
2016-12-08T08:29:26.196Z,8.54
2016-12-08T08:30:26.092Z,8.64
2016-12-08T08:31:26.213Z,8.61
2016-12-08T08:32:26.264Z,8.71
2016-12-08T08:33:26.175Z,8.68
2016-12-08T08:34:26.236Z,8.76
2016-12-08T08:35:26.199Z,8.76
2016-12-08T08:36:26.182Z,8.74
2016-12-08T08:37:26.214Z,8.82
2016-12-08T08:38:26.204Z,8.79
2016-12-08T08:39:26.268Z,8.83
2016-12-08T08:40:26.268Z,8.79
2016-12-08T08:41:26.179Z,8.89
2016-12-08T08:42:26.287Z,8.95
2016-12-08T08:43:26.167Z,8.95
2016-12-08T08:44:26.221Z,9
2016-12-08T08:45:26.125Z,9.09
2016-12-08T08:46:26.288Z,8.94
2016-12-08T08:47:26.194Z,9.01
2016-12-08T08:48:26.304Z,9.14
2016-12-08T08:49:26.192Z,9.03
2016-12-08T08:50:26.311Z,9.2
2016-12-08T08:51:26.343Z,9.19
2016-12-08T08:52:26.234Z,9.24
2016-12-08T08:53:26.255Z,9.23
2016-12-08T08:54:26.368Z,9.42
2016-12-08T08:55:26.353Z,9.41
2016-12-08T08:56:26.307Z,9.47
2016-12-08T08:57:26.308Z,9.39
2016-12-08T08:58:26.301Z,9.48
2016-12-08T08:59:26.222Z,9.5
2016-12-08T09:00:26.224Z,9.59
2016-12-08T09:01:26.289Z,9.42
2016-12-08T09:02:26.166Z,9.6
2016-12-08T09:03:26.331Z,9.64
2016-12-08T09:04:26.266Z,9.74
2016-12-08T09:05:26.301Z,9.78
2016-12-08T09:06:26.231Z,9.81
2016-12-08T09:07:26.275Z,9.84
2016-12-08T09:08:26.442Z,9.74
2016-12-08T09:09:26.380Z,9.6
2016-12-08T09:10:26.335Z,9.74
2016-12-08T09:11:26.613Z,9.8
2016-12-08T09:12:26.395Z,9.8
2016-12-08T09:13:26.193Z,9.93
2016-12-08T09:14:26.375Z,9.92
2016-12-08T09:15:26.435Z,10
2016-12-08T09:16:26.296Z,9.99
2016-12-08T09:17:26.304Z,10.07
2016-12-08T09:18:26.246Z,10
2016-12-08T09:19:26.277Z,10.05
2016-12-08T09:20:26.286Z,10
2016-12-08T09:21:26.324Z,10.03
2016-12-08T09:22:26.463Z,10
2016-12-08T09:23:26.414Z,9.95
2016-12-08T09:24:26.524Z,10.08
2016-12-08T09:25:26.306Z,10.02
2016-12-08T09:26:26.459Z,10.03
2016-12-08T09:27:26.272Z,10.1
2016-12-08T09:28:26.400Z,10.15
2016-12-08T09:29:26.323Z,10.07
2016-12-08T09:30:26.508Z,9.99
2016-12-08T09:31:26.248Z,10.1
2016-12-08T09:32:26.346Z,10.03
2016-12-08T09:33:26.490Z,10.05
2016-12-08T09:34:26.402Z,10.15
2016-12-08T09:35:26.285Z,10.07
2016-12-08T09:36:26.343Z,10.08
2016-12-08T09:37:26.378Z,10.1
2016-12-08T09:38:26.334Z,10.05
2016-12-08T09:39:26.386Z,10.05
2016-12-08T09:40:26.651Z,9.98
2016-12-08T09:41:26.392Z,9.98
2016-12-08T09:42:26.461Z,10.03
2016-12-08T09:43:26.489Z,10.03
2016-12-08T09:44:26.479Z,10.07
2016-12-08T09:45:26.337Z,10.05
2016-12-08T09:46:26.382Z,10.08
2016-12-08T09:47:26.419Z,10.11
2016-12-08T09:48:26.467Z,10.14
2016-12-08T09:49:26.396Z,10.11
2016-12-08T09:50:26.465Z,10.1
2016-12-08T09:51:26.353Z,10.18
2016-12-08T09:52:26.340Z,10.2
2016-12-08T09:53:26.440Z,10.18
2016-12-08T09:54:26.594Z,10.13
2016-12-08T09:55:26.450Z,10.17
2016-12-08T09:56:26.474Z,10.23
2016-12-08T09:57:26.381Z,10.18
2016-12-08T09:58:42.788Z,10.23
2016-12-08T09:59:26.390Z,10.29
2016-12-08T10:00:26.452Z,10.28
2016-12-08T10:01:26.441Z,10.2
2016-12-08T10:02:26.506Z,10.31
2016-12-08T10:03:26.598Z,10.29
2016-12-08T10:04:26.676Z,10.28
2016-12-08T10:05:26.336Z,10.29
2016-12-08T10:06:26.384Z,10.26
2016-12-08T10:07:26.392Z,10.28
2016-12-08T10:08:26.411Z,10.31
2016-12-08T10:09:26.407Z,10.26
2016-12-08T10:10:26.592Z,10.23
2016-12-08T10:11:26.653Z,10.25
2016-12-08T10:12:26.489Z,10.28
2016-12-08T10:13:26.379Z,10.35
2016-12-08T10:14:26.482Z,10.32
2016-12-08T10:15:26.552Z,10.36
2016-12-08T10:16:26.416Z,10.39
2016-12-08T10:17:26.500Z,10.38
2016-12-08T10:18:26.478Z,10.47
2016-12-08T10:19:26.504Z,10.39
2016-12-08T10:20:26.511Z,10.41
2016-12-08T10:21:26.401Z,10.41
2016-12-08T10:22:26.631Z,10.44
2016-12-08T10:23:26.394Z,10.36
2016-12-08T10:24:26.874Z,10.35
2016-12-08T10:25:27.451Z,10.41
2016-12-08T10:26:27.524Z,10.46
2016-12-08T10:27:26.706Z,10.39
2016-12-08T10:28:27.567Z,10.49
2016-12-08T10:29:26.480Z,10.42
2016-12-08T10:30:26.493Z,10.52
2016-12-08T10:31:26.521Z,10.42
2016-12-08T10:32:26.392Z,10.47
2016-12-08T10:33:26.502Z,10.44
2016-12-08T10:34:26.506Z,10.42
2016-12-08T10:35:26.708Z,10.47
2016-12-08T10:36:27.101Z,10.52
2016-12-08T10:37:26.639Z,10.58
2016-12-08T10:38:26.504Z,10.54
2016-12-08T10:39:26.452Z,10.54
2016-12-08T10:40:26.467Z,10.58
2016-12-08T10:41:26.741Z,10.59
2016-12-08T10:42:26.572Z,10.63
2016-12-08T10:43:26.572Z,10.59
2016-12-08T10:44:26.732Z,10.51
2016-12-08T10:45:27.094Z,10.57
2016-12-08T10:46:27.161Z,10.54
2016-12-08T10:47:26.536Z,10.54
2016-12-08T10:48:26.508Z,10.59
2016-12-08T10:49:26.516Z,10.65
2016-12-08T10:50:26.634Z,10.55
2016-12-08T10:51:26.621Z,10.63
2016-12-08T10:52:26.741Z,10.63
2016-12-08T10:53:26.481Z,10.65
2016-12-08T10:54:26.641Z,10.58
2016-12-08T10:55:29.082Z,10.57
2016-12-08T10:56:26.614Z,10.52
2016-12-08T10:57:26.542Z,10.59
2016-12-08T10:58:26.584Z,10.55
2016-12-08T10:59:26.762Z,10.52
2016-12-08T11:00:26.946Z,10.55
2016-12-08T11:01:26.692Z,10.57
2016-12-08T11:02:26.704Z,10.58
2016-12-08T11:03:26.609Z,10.57
2016-12-08T11:04:26.636Z,10.58
2016-12-08T11:05:26.691Z,10.54
2016-12-08T11:06:27.247Z,10.67
2016-12-08T11:07:26.524Z,10.58
2016-12-08T11:08:27.263Z,10.61
2016-12-08T11:09:26.528Z,10.61
2016-12-08T11:10:26.604Z,10.58
2016-12-08T11:11:26.770Z,10.58
2016-12-08T11:12:26.925Z,10.59
2016-12-08T11:13:26.702Z,10.55
2016-12-08T11:14:27.361Z,10.65
2016-12-08T11:15:27.844Z,10.51
2016-12-08T11:16:26.643Z,10.59
2016-12-08T11:17:26.780Z,10.65
2016-12-08T11:18:26.745Z,10.69
2016-12-08T11:19:26.888Z,10.59
2016-12-08T11:20:26.619Z,10.69
2016-12-08T11:21:26.861Z,10.61
2016-12-08T11:22:28.555Z,10.67
2016-12-08T11:23:26.643Z,10.66
2016-12-08T11:24:26.780Z,10.75
2016-12-08T11:25:26.646Z,10.75
2016-12-08T11:26:26.801Z,10.75
2016-12-08T11:27:26.769Z,10.66
2016-12-08T11:28:26.649Z,10.66
2016-12-08T11:29:26.755Z,10.76
2016-12-08T11:30:26.601Z,10.69
2016-12-08T11:31:26.732Z,10.59
2016-12-08T11:32:26.714Z,10.61
2016-12-08T11:33:26.747Z,10.67
2016-12-08T11:34:26.828Z,10.65
2016-12-08T11:35:26.620Z,10.69
2016-12-08T11:36:26.702Z,10.72
2016-12-08T11:37:26.627Z,10.69
2016-12-08T11:38:26.688Z,10.67
2016-12-08T11:39:26.764Z,10.63
2016-12-08T11:40:26.703Z,10.57
2016-12-08T11:41:26.832Z,10.54
2016-12-08T11:42:26.660Z,10.61
2016-12-08T11:43:26.587Z,10.65
2016-12-08T11:44:26.659Z,10.58
2016-12-08T11:45:26.728Z,10.63
2016-12-08T11:46:26.625Z,10.58
2016-12-08T11:47:26.797Z,10.67
2016-12-08T11:48:26.626Z,10.66
2016-12-08T11:49:26.623Z,10.65
2016-12-08T11:50:26.720Z,10.73
2016-12-08T11:51:26.648Z,10.75
2016-12-08T11:52:26.870Z,10.72
2016-12-08T11:53:26.767Z,10.72
2016-12-08T11:54:26.748Z,10.7
2016-12-08T11:55:26.787Z,10.76
2016-12-08T11:56:27.027Z,10.88
2016-12-08T11:57:26.914Z,10.8
2016-12-08T11:58:26.827Z,10.88
2016-12-08T11:59:26.863Z,10.87
2016-12-08T12:00:26.887Z,10.87
2016-12-08T12:01:26.698Z,10.77
2016-12-08T12:02:26.797Z,10.76
2016-12-08T12:03:26.683Z,10.88
2016-12-08T12:04:26.655Z,10.84
2016-12-08T12:05:26.830Z,10.84
2016-12-08T12:06:26.909Z,10.84
2016-12-08T12:07:26.786Z,10.88
2016-12-08T12:08:26.819Z,10.77
2016-12-08T12:09:26.685Z,10.8
2016-12-08T12:10:26.753Z,10.75
2016-12-08T12:11:26.836Z,10.79
2016-12-08T12:12:26.810Z,10.85
2016-12-08T12:13:27.091Z,10.77
2016-12-08T12:14:26.765Z,10.83
2016-12-08T12:15:26.705Z,10.83
2016-12-08T12:16:26.766Z,10.75
2016-12-08T12:17:26.748Z,10.75
2016-12-08T12:18:26.802Z,10.77
2016-12-08T12:19:26.871Z,10.77
2016-12-08T12:20:26.775Z,10.75
2016-12-08T12:21:26.782Z,10.76
2016-12-08T12:22:26.803Z,10.75
2016-12-08T12:23:26.752Z,10.76
2016-12-08T12:24:26.848Z,10.69
2016-12-08T12:25:26.803Z,10.69
2016-12-08T12:26:26.856Z,10.63
2016-12-08T12:27:26.815Z,10.63
2016-12-08T12:28:27.103Z,10.66
2016-12-08T12:29:26.830Z,10.72
2016-12-08T12:30:26.906Z,10.66
2016-12-08T12:31:26.722Z,10.67
2016-12-08T12:32:26.842Z,10.67
2016-12-08T12:33:26.907Z,10.73
2016-12-08T12:34:26.805Z,10.58
2016-12-08T12:35:26.827Z,10.67
2016-12-08T12:36:26.783Z,10.63
2016-12-08T12:37:26.852Z,10.51
2016-12-08T12:38:27.132Z,10.59
2016-12-08T12:39:26.981Z,10.55
2016-12-08T12:40:27.002Z,10.61
2016-12-08T12:41:27.230Z,10.52
2016-12-08T12:42:27.117Z,10.57
2016-12-08T12:43:26.842Z,10.55
2016-12-08T12:44:26.922Z,10.57
2016-12-08T12:45:26.789Z,10.55
2016-12-08T12:46:26.822Z,10.59
2016-12-08T12:47:26.862Z,10.67
2016-12-08T12:48:27.144Z,10.58
2016-12-08T12:49:27.104Z,10.59
2016-12-08T12:50:27.325Z,10.59
2016-12-08T12:51:26.799Z,10.61
2016-12-08T12:52:27.018Z,10.52
2016-12-08T12:53:26.893Z,10.57
2016-12-08T12:54:26.963Z,10.59
2016-12-08T12:55:26.927Z,10.57
2016-12-08T12:56:27.129Z,10.59
2016-12-08T12:57:26.806Z,10.59
2016-12-08T12:58:26.904Z,10.67
2016-12-08T12:59:27.120Z,10.58
2016-12-08T13:00:26.949Z,10.66
2016-12-08T13:01:27.041Z,10.65
2016-12-08T13:02:26.906Z,10.58
2016-12-08T13:03:26.875Z,10.58
2016-12-08T13:04:26.895Z,10.55
2016-12-08T13:05:26.913Z,10.59
2016-12-08T13:06:26.969Z,10.57
2016-12-08T13:07:26.878Z,10.52
2016-12-08T13:08:26.860Z,10.55
2016-12-08T13:09:29.104Z,10.61
2016-12-08T13:10:26.942Z,10.61
2016-12-08T13:11:27.253Z,10.57
2016-12-08T13:12:26.883Z,10.58
2016-12-08T13:13:27.011Z,10.59